Terminal Aerodrome Forecast
Issued by NWS

Home | Current Version | Previous Version | Text Only | Print | Product List | Glossary On
Versions: 1 2 3 4 5 6 7 8 9 10 11 12 13 14 15 16
000
FTUS45 KRIW 232300
TAFCPR
TAF
KCPR 232340Z 2400/2424 28007KT P6SM SKC
     FM240200 23009KT P6SM SCT200
     FM241000 22014G24KT P6SM FEW110
     FM241600 22024G34KT P6SM FEW120 SCT200=

USA.gov is the U.S. government's official web portal to all federal, state and local government web resources and services.